Time;durP1;ratioP1;P1;durP2;ratioP2;P2;SDS_P1;SDS_P2;PMS_P1;PMS_P2;Temp;Humidity;BMP_temperature;BMP_pressure;BME280_temperature;BME280_humidity;BME280_pressure;Samples;Min_cycle;Max_cycle;Signal;HPM_P1;HPM_P2
2022/10/26 00:01:09;;;;;;;5.08;4.05;;;;;;;13.87;100.00;99470.44;1778407;78;21538;-63
2022/10/26 00:03:37;;;;;;;4.03;3.72;;;;;;;13.87;100.00;99479.69;1761786;80;21050;-63
2022/10/26 00:06:14;;;;;;;5.17;4.20;;;;;;;13.87;100.00;99481.48;1747214;80;21463;-63
2022/10/26 00:08:41;;;;;;;5.62;3.85;;;;;;;13.90;100.00;99483.92;1754293;80;21427;-63
2022/10/26 00:11:09;;;;;;;4.70;4.33;;;;;;;13.87;100.00;99482.33;1750316;80;21461;-63
2022/10/26 00:13:36;;;;;;;7.08;4.42;;;;;;;13.89;100.00;99480.45;1717558;81;21426;-63
2022/10/26 00:16:23;;;;;;;3.95;3.65;;;;;;;13.91;100.00;99477.72;1732824;81;22214;-63
2022/10/26 00:18:50;;;;;;;5.20;3.83;;;;;;;13.91;100.00;99489.61;1745980;81;21565;-62
2022/10/26 00:21:17;;;;;;;4.78;4.42;;;;;;;13.91;100.00;99489.61;1746173;81;21825;-62
2022/10/26 00:23:45;;;;;;;4.45;4.15;;;;;;;13.95;100.00;99488.48;1746928;81;21485;-62
2022/10/26 00:26:12;;;;;;;7.83;4.50;;;;;;;13.95;100.00;99488.48;1740700;81;21454;-63
2022/10/26 00:28:39;;;;;;;6.83;4.60;;;;;;;13.89;100.00;99485.73;1718653;81;20958;-64
2022/10/26 00:31:10;;;;;;;4.37;3.98;;;;;;;13.88;100.00;99492.42;1717161;83;20969;-63
2022/10/26 00:33:36;;;;;;;4.20;3.80;;;;;;;13.85;100.00;99493.94;1718079;81;21878;-62
2022/10/26 00:36:03;;;;;;;4.40;4.10;;;;;;;13.85;100.00;99501.88;1720860;81;21525;-62
2022/10/26 00:38:30;;;;;;;5.35;4.33;;;;;;;13.89;100.00;99501.59;1746473;80;21419;-63
2022/10/26 00:40:57;;;;;;;4.70;4.30;;;;;;;13.90;100.00;99503.30;1743135;81;21481;-62
2022/10/26 00:43:30;;;;;;;4.92;4.58;;;;;;;13.89;100.00;99501.59;1751358;80;21589;-62
2022/10/26 00:45:56;;;;;;;4.55;4.22;;;;;;;13.88;100.00;99491.09;1773373;79;21768;-63
2022/10/26 00:48:29;;;;;;;5.40;4.80;;;;;;;13.87;100.00;99497.34;1759923;80;21498;-63
2022/10/26 00:50:56;;;;;;;5.17;4.78;;;;;;;13.89;100.00;99498.94;1743110;80;21514;-62
2022/10/26 00:53:23;;;;;;;5.15;4.65;;;;;;;13.89;100.00;99496.30;1743226;81;21546;-63
2022/10/26 00:55:50;;;;;;;5.30;4.80;;;;;;;13.89;100.00;99498.94;1743128;80;21439;-62
2022/10/26 00:58:17;;;;;;;5.72;5.33;;;;;;;13.93;100.00;99505.74;1765797;80;21843;-62
2022/10/26 01:00:43;;;;;;;7.05;5.47;;;;;;;13.94;100.00;99503.98;1749694;80;21545;-62
2022/10/26 01:03:10;;;;;;;5.92;5.50;;;;;;;13.93;100.00;99499.14;1775214;79;20976;-62
2022/10/26 01:05:40;;;;;;;;;;;;;;;13.93;100.00;99508.39;1782178;80;21406;-62
2022/10/26 01:08:07;;;;;;;6.08;5.53;;;;;;;13.80;100.00;99503.44;1766511;80;20154;-62
2022/10/26 01:10:37;;;;;;;8.28;6.28;;;;;;;13.77;100.00;99507.61;1744051;80;23005;-62
2022/10/26 01:13:05;;;;;;;5.72;5.22;;;;;;;13.71;100.00;99506.62;1743545;80;21529;-62
2022/10/26 01:15:58;;;;;;;5.95;5.45;;;;;;;13.72;100.00;99512.30;1743190;81;21419;-62
2022/10/26 01:18:55;;;;;;;5.42;5.03;;;;;;;13.72;100.00;99510.98;1751892;80;21029;-62
2022/10/26 01:21:40;;;;;;;5.47;4.97;;;;;;;13.68;100.00;99521.34;1739431;80;21546;-62
2022/10/26 01:24:27;;;;;;;5.37;4.87;;;;;;;13.67;100.00;99519.15;1743283;80;21801;-61
2022/10/26 01:27:29;;;;;;;5.50;5.10;;;;;;;13.71;100.00;99512.77;1750004;80;21498;-62
2022/10/26 01:30:17;;;;;;;6.35;5.75;;;;;;;13.69;100.00;99512.46;1807806;78;21005;-62
2022/10/26 01:33:24;;;;;;;5.83;5.03;;;;;;;13.66;100.00;99506.89;1803745;78;21434;-62
2022/10/26 01:36:14;;;;;;;5.70;5.20;;;;;;;13.67;100.00;99508.58;1779649;78;21556;-62
2022/10/26 01:39:18;;;;;;;5.37;4.90;;;;;;;13.68;100.00;99508.13;1780052;78;21824;-60
2022/10/26 01:41:52;;;;;;;5.70;5.20;;;;;;;13.66;100.00;99506.89;1808294;78;21615;-61
2022/10/26 01:44:51;;;;;;;5.53;5.03;;;;;;;13.58;100.00;99513.94;1796420;78;20965;-61
2022/10/26 01:47:17;;;;;;;5.45;4.92;;;;;;;13.59;100.00;99520.91;1658996;85;21490;-60
2022/10/26 01:49:53;;;;;;;6.30;4.67;;;;;;;13.63;100.00;99513.19;1660265;85;21445;-61
2022/10/26 01:52:19;;;;;;;5.92;5.20;;;;;;;13.62;100.00;99514.14;1660205;85;21749;-61
2022/10/26 01:54:47;;;;;;;5.87;5.37;;;;;;;13.63;100.00;99514.51;1654670;86;21493;-61
2022/10/26 01:57:17;;;;;;;6.17;5.58;;;;;;;13.63;100.00;99511.87;1655380;86;21438;-61
2022/10/26 01:59:53;;;;;;;5.72;5.25;;;;;;;13.65;100.00;99515.75;1655100;85;21471;-61
2022/10/26 02:02:31;;;;;;;6.28;5.67;;;;;;;13.63;100.00;99523.75;1655490;84;21443;-62
2022/10/26 02:05:25;;;;;;;6.60;5.70;;;;;;;13.62;100.00;99518.11;1646377;85;21766;-61
2022/10/26 02:08:14;;;;;;;5.90;5.40;;;;;;;13.59;100.00;99518.75;1675896;84;21607;-61
2022/10/26 02:11:12;;;;;;;7.33;5.50;;;;;;;13.59;100.00;99521.39;1645202;86;21536;-61
2022/10/26 02:13:46;;;;;;;6.30;5.80;;;;;;;13.54;100.00;99520.34;1610466;86;21600;-60
2022/10/26 02:16:26;;;;;;;6.33;5.80;;;;;;;13.53;100.00;99520.43;1652184;86;21433;-61
2022/10/26 02:19:02;;;;;;;10.93;5.55;;;;;;;13.48;100.00;99520.67;1656361;84;21561;-60
2022/10/26 02:21:39;;;;;;;6.50;5.90;;;;;;;13.49;100.00;99521.07;1629916;86;21440;-60
2022/10/26 02:24:07;;;;;;;5.30;4.90;;;;;;;13.52;100.00;99526.16;1628565;86;21510;-60
2022/10/26 02:26:34;;;;;;;4.95;4.55;;;;;;;13.51;100.00;99528.44;1652270;84;21552;-60
2022/10/26 02:29:04;;;;;;;5.65;5.10;;;;;;;13.48;100.00;99520.67;1652587;86;21027;-60
2022/10/26 02:31:30;;;;;;;5.50;5.00;;;;;;;13.51;100.00;99527.59;1655012;85;21827;-60
2022/10/26 02:33:57;;;;;;;5.90;5.08;;;;;;;13.48;100.00;99522.47;1649058;86;21508;-60
2022/10/26 02:36:27;;;;;;;5.73;5.30;;;;;;;13.52;100.00;99522.20;1628562;87;21022;-60
2022/10/26 02:38:53;;;;;;;6.20;5.22;;;;;;;13.52;100.00;99512.95;1652907;85;21043;-60
2022/10/26 02:41:21;;;;;;;6.53;5.90;;;;;;;13.53;100.00;99523.91;1630242;86;21506;-61
2022/10/26 02:43:52;;;;;;;6.47;5.60;;;;;;;13.56;100.00;99526.84;1630592;85;21775;-61
2022/10/26 02:46:20;;;;;;;6.47;5.60;;;;;;;13.61;100.00;99530.08;1654108;84;21492;-62
2022/10/26 02:48:47;;;;;;;6.33;5.78;;;;;;;13.62;100.00;99519.43;1645905;86;21449;-62
2022/10/26 02:51:35;;;;;;;6.28;5.78;;;;;;;13.59;100.00;99524.03;1628149;86;21565;-62
2022/10/26 02:54:22;;;;;;;5.62;5.12;;;;;;;13.58;100.00;99527.59;1686291;84;21548;-62
2022/10/26 02:56:58;;;;;;;;;;;;;;;13.62;100.00;99531.80;1686745;83;21494;-62
2022/10/26 02:59:28;;;;;;;7.12;6.00;;;;;;;13.56;100.00;99536.08;1683316;83;20446;-63
2022/10/26 03:01:54;;;;;;;9.65;6.00;;;;;;;13.60;100.00;99533.67;1686469;84;21001;-63
2022/10/26 03:04:30;;;;;;;8.15;5.97;;;;;;;13.62;100.00;99530.47;1686672;84;20966;-63
2022/10/26 03:06:57;;;;;;;6.58;5.42;;;;;;;13.64;100.00;99539.16;1686896;84;21544;-61
2022/10/26 03:09:24;;;;;;;5.95;5.40;;;;;;;13.66;100.00;99533.80;1686494;83;22114;-61
2022/10/26 03:11:51;;;;;;;6.70;5.87;;;;;;;13.67;100.00;99539.44;1679926;84;21446;-60
2022/10/26 03:14:19;;;;;;;7.20;5.75;;;;;;;13.59;100.00;99538.56;1653827;86;21451;-61
2022/10/26 03:16:47;;;;;;;6.20;5.60;;;;;;;13.55;100.00;99541.00;1685071;84;20977;-62
2022/10/26 03:19:14;;;;;;;5.85;5.35;;;;;;;13.54;100.00;99541.48;1652734;85;21552;-62
2022/10/26 03:21:41;;;;;;;6.92;5.67;;;;;;;13.53;100.00;99545.52;1652033;86;21601;-62
2022/10/26 03:24:09;;;;;;;6.25;5.65;;;;;;;13.55;100.00;99543.16;1623728;87;21479;-62
2022/10/26 03:26:36;;;;;;;;;;;;;;;13.55;100.00;99541.84;1654444;86;21520;-62
2022/10/26 03:29:03;;;;;;;5.62;5.00;;;;;;;13.47;100.00;99547.16;1652575;85;20521;-62
2022/10/26 03:31:30;;;;;;;6.35;5.33;;;;;;;13.50;100.00;99557.09;1623985;87;21490;-62
2022/10/26 03:33:57;;;;;;;6.17;5.50;;;;;;;13.57;100.00;99551.85;1652176;86;22117;-62
2022/10/26 03:36:24;;;;;;;6.37;5.35;;;;;;;13.60;100.00;99547.73;1624037;87;21580;-63
2022/10/26 03:38:51;;;;;;;5.92;4.85;;;;;;;13.62;100.00;99544.53;1652155;85;21478;-63
2022/10/26 03:41:18;;;;;;;5.83;5.05;;;;;;;13.65;100.00;99545.28;1625749;85;21531;-62
2022/10/26 03:43:47;;;;;;;8.05;5.22;;;;;;;13.65;100.00;99542.16;1685870;83;21650;-62
2022/10/26 03:46:14;;;;;;;7.78;6.35;;;;;;;13.69;100.00;99540.20;1686499;84;21829;-61
2022/10/26 03:48:40;;;;;;;5.80;5.30;;;;;;;13.71;100.00;99544.92;1684633;83;21475;-61
2022/10/26 03:51:09;;;;;;;5.85;5.33;;;;;;;13.69;100.00;99544.17;1683358;83;21435;-62
2022/10/26 03:53:35;;;;;;;5.42;4.92;;;;;;;13.70;100.00;99540.59;1683038;84;21478;-62
2022/10/26 03:56:02;;;;;;;8.70;5.40;;;;;;;13.67;100.00;99549.53;1683118;84;21583;-61
2022/10/26 03:58:29;;;;;;;6.10;5.50;;;;;;;13.68;100.00;99548.61;1683432;84;22001;-62
2022/10/26 04:00:56;;;;;;;6.05;4.65;;;;;;;13.69;100.00;99546.33;1692357;83;21741;-63
2022/10/26 04:03:22;;;;;;;5.53;5.12;;;;;;;13.71;100.00;99556.81;1683148;84;21498;-62
2022/10/26 04:05:50;;;;;;;5.45;5.00;;;;;;;13.70;100.00;99549.84;1683259;84;21538;-60
2022/10/26 04:08:16;;;;;;;4.83;4.42;;;;;;;13.73;100.00;99550.97;1683083;84;21639;-62
2022/10/26 04:10:46;;;;;;;5.35;4.70;;;;;;;13.79;100.00;99544.88;1683359;83;21490;-63
2022/10/26 04:13:12;;;;;;;;;;;;;;;13.82;100.00;99550.45;1661005;86;21497;-61
2022/10/26 04:15:40;;;;;;;5.40;4.65;;;;;;;13.76;100.00;99547.69;1658790;86;20413;-62
2022/10/26 04:18:28;;;;;;;8.00;5.35;;;;;;;13.81;100.00;99543.48;1673674;83;21498;-61
2022/10/26 04:21:01;;;;;;;4.95;4.55;;;;;;;13.79;100.00;99538.27;1672215;84;21550;-62
2022/10/26 04:23:28;;;;;;;5.37;4.97;;;;;;;13.79;100.00;99537.43;1679692;81;22206;-62
2022/10/26 04:25:54;;;;;;;8.88;4.97;;;;;;;13.82;100.00;99536.78;1707259;81;21599;-62
2022/10/26 04:28:21;;;;;;;6.20;5.67;;;;;;;13.84;100.00;99530.06;1689568;82;21682;-61
2022/10/26 04:30:48;;;;;;;5.42;4.92;;;;;;;13.82;100.00;99527.98;1693502;83;21665;-61
2022/10/26 04:33:14;;;;;;;5.28;4.87;;;;;;;13.82;100.00;99530.63;1696721;82;21626;-62
2022/10/26 04:35:42;;;;;;;5.58;5.08;;;;;;;13.80;100.00;99533.83;1703516;81;21858;-61
2022/10/26 04:38:09;;;;;;;9.23;5.10;;;;;;;13.80;100.00;99524.10;1708173;81;21525;-61
2022/10/26 04:40:36;;;;;;;7.92;4.80;;;;;;;13.77;100.00;99528.27;1704101;82;21030;-61
2022/10/26 04:43:03;;;;;;;7.30;4.90;;;;;;;13.80;100.00;99529.39;1693526;82;21525;-61
2022/10/26 04:45:30;;;;;;;7.62;4.87;;;;;;;13.86;100.00;99525.53;1699126;81;21536;-62
2022/10/26 04:48:04;;;;;;;8.28;5.30;;;;;;;13.84;100.00;99528.74;1719878;81;21695;-61
2022/10/26 04:50:32;;;;;;;6.20;5.67;;;;;;;13.82;100.00;99526.22;1717380;83;21511;-62
2022/10/26 04:52:58;;;;;;;5.90;5.12;;;;;;;13.83;100.00;99527.90;1717734;83;21548;-62
2022/10/26 04:55:25;;;;;;;10.60;5.67;;;;;;;13.86;100.00;99528.18;1718347;83;21568;-62
2022/10/26 04:57:52;;;;;;;6.08;5.17;;;;;;;13.84;100.00;99530.06;1718228;83;21561;-62
2022/10/26 05:00:19;;;;;;;7.87;5.12;;;;;;;13.82;100.00;99532.82;1717992;83;21796;-62
2022/10/26 05:02:46;;;;;;;9.33;5.65;;;;;;;13.82;100.00;99531.95;1724050;81;21509;-61
2022/10/26 05:05:13;;;;;;;6.62;5.25;;;;;;;13.89;100.00;99537.75;1722036;81;21533;-61
2022/10/26 05:07:40;;;;;;;5.33;4.92;;;;;;;13.95;100.00;99527.64;1700416;83;21534;-62
2022/10/26 05:10:08;;;;;;;5.83;5.08;;;;;;;14.01;100.00;99535.69;1725922;81;21470;-61
2022/10/26 05:12:34;;;;;;;5.40;4.90;;;;;;;14.05;100.00;99535.04;1706221;82;21474;-60
2022/10/26 05:15:02;;;;;;;6.87;4.97;;;;;;;14.05;100.00;99539.01;1699853;82;21402;-57
2022/10/26 05:17:30;;;;;;;5.58;4.92;;;;;;;14.06;100.00;99540.72;1718196;83;21506;-61
2022/10/26 05:19:59;;;;;;;5.65;4.95;;;;;;;14.09;100.00;99541.40;1718779;81;21452;-60
2022/10/26 05:22:25;;;;;;;7.25;5.17;;;;;;;14.13;100.00;99542.07;1738822;81;21481;-59
2022/10/26 05:24:53;;;;;;;6.53;4.92;;;;;;;14.15;100.00;99538.86;1725446;81;21552;-59
2022/10/26 05:30:00;;;;;;;7.62;5.40;;;;;;;13.76;100.00;99552.13;1779807;78;23149;-58
2022/10/26 05:32:26;;;;;;;7.47;4.80;;;;;;;14.00;100.00;99550.70;1733017;80;21139;-60
2022/10/26 05:34:54;;;;;;;8.93;6.12;;;;;;;13.99;100.00;99550.34;1746374;80;25813;-59
2022/10/26 05:37:21;;;;;;;6.03;5.40;;;;;;;13.98;100.00;99550.42;1746860;80;21021;-60
2022/10/26 05:39:47;;;;;;;7.30;5.33;;;;;;;14.02;100.00;99548.82;1752377;79;21494;-61
2022/10/26 05:42:14;;;;;;;6.33;5.20;;;;;;;14.05;100.00;99547.78;1770715;80;21506;-63
2022/10/26 05:44:41;;;;;;;6.00;5.37;;;;;;;14.08;100.00;99549.41;1757648;80;21588;-62
2022/10/26 05:47:07;;;;;;;8.70;5.97;;;;;;;14.10;100.00;99549.69;1769714;80;21746;-61
2022/10/26 05:49:34;;;;;;;6.28;5.67;;;;;;;14.13;100.00;99558.77;1753414;80;20989;-61
2022/10/26 05:52:01;;;;;;;6.27;5.50;;;;;;;14.16;100.00;99551.13;1747953;81;21548;-60
2022/10/26 05:54:29;;;;;;;6.28;5.72;;;;;;;14.20;100.00;99556.60;1746472;80;21486;-59
2022/10/26 05:56:56;;;;;;;5.75;5.25;;;;;;;14.22;100.00;99557.36;1765426;80;21493;-61
2022/10/26 05:59:23;;;;;;;6.22;5.62;;;;;;;14.17;100.00;99558.97;1769628;80;21834;-61
2022/10/26 06:02:27;;;;;;;9.05;5.85;;;;;;;14.14;100.00;99561.78;1755910;80;21466;-61
2022/10/26 06:04:54;;;;;;;6.80;5.15;;;;;;;14.13;100.00;99562.73;1751820;79;21719;-62
2022/10/26 06:07:21;;;;;;;6.60;4.97;;;;;;;14.16;100.00;99565.19;1683838;83;21446;-60
2022/10/26 06:09:51;;;;;;;6.28;5.15;;;;;;;14.23;100.00;99565.69;1718158;83;21465;-59
2022/10/26 06:12:18;;;;;;;6.50;5.37;;;;;;;14.28;100.00;99561.44;1708661;83;21860;-58
2022/10/26 06:14:45;;;;;;;6.92;5.87;;;;;;;14.33;100.00;99564.66;1700561;83;21592;-57
2022/10/26 06:17:36;;;;;;;5.85;5.35;;;;;;;14.34;100.00;99565.06;1652147;84;21538;-57
2022/10/26 06:20:44;;;;;;;5.40;4.90;;;;;;;14.35;100.00;99566.30;1694486;83;21471;-57
2022/10/26 06:23:42;;;;;;;6.15;4.92;;;;;;;14.31;100.00;99569.20;1694287;83;21436;-58
2022/10/26 06:26:28;;;;;;;5.35;4.85;;;;;;;14.32;100.00;99566.95;1677548;83;22108;-58
2022/10/26 06:29:19;;;;;;;8.33;5.33;;;;;;;14.40;100.00;99571.30;1700961;81;20985;-59
2022/10/26 06:31:46;;;;;;;7.90;5.62;;;;;;;14.49;100.00;99578.69;1734184;80;21478;-60
2022/10/26 06:34:24;;;;;;;6.72;5.50;;;;;;;14.61;100.00;99575.80;1719194;80;21537;-60
2022/10/26 06:36:50;;;;;;;;;;;;;;;14.66;100.00;99575.53;1740569;80;21530;-62
2022/10/26 06:39:19;;;;;;;7.30;5.12;;;;;;;14.63;100.00;99577.88;1746948;79;21842;-59
2022/10/26 06:41:46;;;;;;;12.28;5.92;;;;;;;14.64;100.00;99574.30;1745387;80;21493;-59
2022/10/26 06:44:20;;;;;;;6.17;5.15;;;;;;;14.64;100.00;99576.95;1746254;79;21563;-59
2022/10/26 06:47:22;;;;;;;7.83;4.55;;;;;;;14.67;100.00;99572.77;1732846;80;21601;-59
2022/10/26 06:50:03;;;;;;;4.80;4.40;;;;;;;14.77;100.00;99575.73;1725860;80;21505;-59
2022/10/26 06:52:38;;;;;;;5.30;4.90;;;;;;;14.78;100.00;99574.28;1732110;81;21806;-60
2022/10/26 06:55:09;;;;;;;5.05;4.55;;;;;;;14.87;100.00;99577.34;1734849;80;21400;-58
2022/10/26 06:57:37;;;;;;;4.75;4.28;;;;;;;14.95;100.00;99581.19;1713423;81;21428;-59
2022/10/26 07:00:09;;;;;;;5.92;4.50;;;;;;;15.03;100.00;99582.06;1730497;80;21552;-58
2022/10/26 07:02:36;;;;;;;5.60;4.30;;;;;;;15.08;100.00;99579.95;1730344;81;21424;-58
2022/10/26 07:05:05;;;;;;;7.05;4.37;;;;;;;15.10;100.00;99575.90;1733932;81;21531;-61
2022/10/26 07:07:32;;;;;;;4.42;4.03;;;;;;;15.16;100.00;99583.45;1731463;80;21413;-59
2022/10/26 07:09:59;;;;;;;6.42;4.10;;;;;;;15.24;100.00;99581.64;1735905;80;21527;-61
2022/10/26 07:12:25;;;;;;;6.08;4.40;;;;;;;15.32;100.00;99580.22;1745818;80;21538;-58
2022/10/26 07:14:52;;;;;;;6.37;4.22;;;;;;;15.37;100.00;99574.64;1731121;80;21537;-58
2022/10/26 07:17:19;;;;;;;4.05;3.65;;;;;;;15.41;100.00;99579.25;1730348;80;21558;-58
2022/10/26 07:19:45;;;;;;;4.40;4.00;;;;;;;15.44;100.00;99587.85;1721494;81;21571;-57
2022/10/26 07:22:13;;;;;;;4.20;3.80;;;;;;;15.40;100.00;99580.21;1722284;80;21593;-59
2022/10/26 07:24:40;;;;;;;4.10;3.67;;;;;;;15.35;100.00;99588.44;1731253;80;21602;-59
2022/10/26 07:27:07;;;;;;;3.45;3.15;;;;;;;15.36;100.00;99591.47;1735080;80;21626;-59
2022/10/26 07:29:36;;;;;;;4.17;3.80;;;;;;;15.39;100.00;99600.56;1739868;80;21534;-60
2022/10/26 07:32:03;;;;;;;3.87;3.58;;;;;;;15.42;100.00;99597.70;1697890;83;21552;-59
2022/10/26 07:34:31;;;;;;;5.72;4.15;;;;;;;15.47;100.00;99602.72;1692595;83;21089;-59
2022/10/26 07:36:59;;;;;;;4.45;4.05;;;;;;;15.48;100.00;99599.98;1688097;83;21560;-59
2022/10/26 07:39:26;;;;;;;7.08;4.22;;;;;;;15.49;100.00;99606.13;1676270;83;21519;-59
2022/10/26 07:41:54;;;;;;;5.28;3.47;;;;;;;15.48;100.00;99601.76;1675690;82;21490;-59
2022/10/26 07:44:20;;;;;;;5.42;3.83;;;;;;;15.46;100.00;99603.17;1680820;83;21547;-59
2022/10/26 07:46:47;;;;;;;6.57;3.30;;;;;;;15.47;100.00;99598.27;1700076;82;21010;-60
2022/10/26 07:49:14;;;;;;;4.53;3.77;;;;;;;15.46;100.00;99598.36;1690519;82;21600;-59
2022/10/26 07:51:41;;;;;;;3.37;3.17;;;;;;;15.49;100.00;99608.29;1698093;82;21495;-61
2022/10/26 07:54:07;;;;;;;3.08;2.77;;;;;;;15.50;100.00;99606.48;1702449;82;21839;-59
2022/10/26 07:56:34;;;;;;;3.15;2.85;;;;;;;15.51;100.00;99608.20;1703309;82;21113;-58
2022/10/26 07:59:01;;;;;;;4.45;3.08;;;;;;;15.54;100.00;99607.53;1692037;82;21605;-58
2022/10/26 08:01:28;;;;;;;3.98;3.50;;;;;;;15.52;100.00;99608.10;1695762;82;21455;-58
2022/10/26 08:03:55;;;;;;;3.42;2.75;;;;;;;15.52;100.00;99613.41;1686535;82;21498;-58
2022/10/26 08:06:22;;;;;;;2.95;2.67;;;;;;;15.55;100.00;99610.54;1696778;83;21894;-58
2022/10/26 08:08:50;;;;;;;3.33;3.02;;;;;;;15.58;100.00;99612.16;1682167;83;21434;-58
2022/10/26 08:11:17;;;;;;;4.80;2.83;;;;;;;15.63;100.00;99620.64;1663629;83;21624;-58
2022/10/26 08:13:44;;;;;;;6.15;3.33;;;;;;;15.72;100.00;99618.73;1692418;83;21455;-58
2022/10/26 08:16:12;;;;;;;3.15;2.67;;;;;;;15.72;100.00;99618.73;1691969;82;20994;-58
2022/10/26 08:18:40;;;;;;;3.47;3.27;;;;;;;15.76;100.00;99617.64;1694484;82;21856;-59
2022/10/26 08:21:14;;;;;;;3.25;3.00;;;;;;;15.82;100.00;99619.02;1698489;83;21606;-59
2022/10/26 08:23:40;;;;;;;4.87;3.77;;;;;;;15.82;100.00;99619.02;1715555;82;21033;-60
2022/10/26 08:26:06;;;;;;;5.80;3.45;;;;;;;15.75;100.00;99613.28;1721539;82;21182;-59
2022/10/26 08:28:33;;;;;;;3.53;3.23;;;;;;;15.69;100.00;99620.27;1721321;82;21588;-60
2022/10/26 08:31:00;;;;;;;4.75;3.35;;;;;;;15.68;100.00;99629.64;1707262;81;21843;-59
2022/10/26 08:33:27;;;;;;;4.33;3.67;;;;;;;15.72;100.00;99621.38;1751486;80;21463;-59
2022/10/26 08:35:59;;;;;;;4.55;3.70;;;;;;;15.76;100.00;99621.62;1743083;80;21534;-59
2022/10/26 08:38:27;;;;;;;5.72;3.90;;;;;;;15.80;100.00;99622.24;1751081;79;21465;-58
2022/10/26 08:40:56;;;;;;;3.85;3.27;;;;;;;15.85;100.00;99621.96;1738318;80;21513;-62
2022/10/26 08:43:34;;;;;;;5.10;3.95;;;;;;;15.90;100.00;99635.78;1745474;80;21878;-59
2022/10/26 08:46:10;;;;;;;4.87;4.35;;;;;;;15.96;100.00;99624.28;1751277;80;21551;-60
2022/10/26 08:48:50;;;;;;;5.58;4.22;;;;;;;16.01;100.00;99625.32;1731473;80;21589;-58
2022/10/26 08:51:24;;;;;;;4.00;3.70;;;;;;;15.98;100.00;99628.16;1713071;80;21548;-60
2022/10/26 08:54:00;;;;;;;4.05;3.65;;;;;;;16.08;100.00;99630.57;1729130;81;21518;-58
2022/10/26 08:56:37;;;;;;;4.42;3.67;;;;;;;16.20;100.00;99634.23;1704363;82;21813;-59
2022/10/26 08:59:44;;;;;;;3.77;3.47;;;;;;;16.25;100.00;99630.78;1728363;82;21518;-59
2022/10/26 09:02:13;;;;;;;4.60;4.20;;;;;;;16.32;100.00;99636.55;1734587;80;21053;-58
2022/10/26 09:04:40;;;;;;;4.17;3.12;;;;;;;16.41;100.00;99639.06;1759674;81;21714;-60
2022/10/26 13:13:22;;;;;;;7.70;6.47;;;;;;;15.05;100.00;99710.36;1828550;76;26925;-60
2022/10/26 13:15:54;;;;;;;6.78;5.50;;;;;;;15.22;100.00;99723.91;1778058;78;21052;-58
2022/10/26 13:18:21;;;;;;;7.12;5.62;;;;;;;15.28;100.00;99731.50;1805374;78;21874;-58
2022/10/26 13:25:00;;;;;;;6.80;5.75;;;;;;;15.27;100.00;99770.84;1768356;80;21670;-58
2022/10/26 13:27:37;;;;;;;6.22;5.25;;;;;;;15.16;100.00;99755.59;1773488;80;21431;-58
2022/10/26 13:30:35;;;;;;;8.20;5.97;;;;;;;15.16;100.00;99778.09;1773773;79;21525;-58
2022/10/26 13:33:02;;;;;;;5.92;5.08;;;;;;;15.15;100.00;99779.90;1744057;80;21976;-59
2022/10/26 13:35:30;;;;;;;8.68;5.25;;;;;;;15.15;100.00;99779.06;1802468;78;21498;-59
2022/10/26 13:37:56;;;;;;;7.87;5.62;;;;;;;15.15;100.00;99778.58;1716904;79;21592;-59
2022/10/26 13:40:25;;;;;;;6.75;5.10;;;;;;;15.16;100.00;99784.27;1763857;79;21573;-59
2022/10/26 13:43:02;;;;;;;5.95;5.20;;;;;;;15.15;100.00;99783.88;1795163;78;21508;-59
2022/10/26 13:45:47;;;;;;;7.30;5.40;;;;;;;15.14;100.00;99790.13;1744765;80;21777;-60
2022/10/26 13:48:18;;;;;;;5.72;5.03;;;;;;;15.15;100.00;99782.55;1767975;80;21920;-59
2022/10/26 13:50:52;;;;;;;5.37;4.80;;;;;;;15.14;100.00;99783.96;1743656;80;21005;-59
2022/10/26 13:53:37;;;;;;;7.67;4.40;;;;;;;15.14;100.00;99783.96;1736867;81;21561;-59
2022/10/26 13:56:36;;;;;;;5.95;5.12;;;;;;;15.19;100.00;99780.58;1735710;81;21512;-58
2022/10/26 13:59:09;;;;;;;5.92;4.87;;;;;;;15.17;100.00;99774.04;1771731;80;22090;-58
2022/10/26 14:01:36;;;;;;;5.03;4.60;;;;;;;15.12;100.00;99778.75;1798342;78;21401;-59
2022/10/26 14:04:26;;;;;;;9.35;4.80;;;;;;;15.13;100.00;99778.30;1778682;80;21465;-59
2022/10/26 14:06:53;;;;;;;5.92;4.78;;;;;;;15.13;100.00;99779.14;1730478;80;21462;-59
2022/10/26 14:09:21;;;;;;;6.67;5.12;;;;;;;15.08;100.00;99784.33;1772536;80;20954;-61
2022/10/26 14:11:59;;;;;;;6.65;5.50;;;;;;;15.05;100.00;99792.00;1783569;78;22031;-60
2022/10/26 14:14:33;;;;;;;;;;;;;;;15.05;100.00;99803.03;1745478;80;21517;-59
2022/10/26 14:17:00;;;;;;;8.60;5.00;;;;;;;14.90;100.00;99804.34;1751545;80;20496;-60
2022/10/26 14:19:37;;;;;;;5.63;5.13;;;;;;;14.94;100.00;99810.30;1764310;80;21478;-59
2022/10/26 14:22:04;;;;;;;7.08;5.78;;;;;;;14.91;100.00;99807.83;1769825;79;21517;-61
2022/10/26 14:24:39;;;;;;;7.30;5.45;;;;;;;14.87;100.00;99803.66;1759301;80;21895;-59
2022/10/26 14:27:20;;;;;;;7.05;5.12;;;;;;;14.76;100.00;99805.11;1808033;78;21415;-58
2022/10/26 14:29:46;;;;;;;5.97;5.45;;;;;;;14.75;100.00;99801.25;1786759;78;21090;-59
2022/10/26 14:32:35;;;;;;;10.03;5.10;;;;;;;14.71;100.00;99803.67;1803882;78;21474;-58
2022/10/26 14:34:58;;;;;;;4.95;4.42;;;;;;;14.67;100.00;99806.96;1765798;79;20930;-58
2022/10/26 14:37:37;;;;;;;6.27;5.43;;;;;;;14.57;100.00;99805.31;1745974;80;21776;-59
2022/10/26 14:40:06;;;;;;;7.28;4.95;;;;;;;14.50;100.00;99811.01;1809587;78;21565;-58
2022/10/26 14:42:38;;;;;;;7.37;5.40;;;;;;;14.42;100.00;99824.67;1810153;78;21497;-59
2022/10/26 14:45:06;;;;;;;5.90;4.85;;;;;;;14.35;100.00;99818.89;1806489;78;21541;-58
2022/10/26 14:47:34;;;;;;;8.00;5.62;;;;;;;14.33;100.00;99823.38;1797489;78;21513;-59
2022/10/26 14:50:01;;;;;;;7.33;5.50;;;;;;;14.32;100.00;99824.33;1743509;78;21420;-55
2022/10/26 14:52:36;;;;;;;8.18;5.37;;;;;;;14.31;100.00;99825.73;1768106;79;21475;-58
2022/10/26 14:55:13;;;;;;;5.87;5.22;;;;;;;14.26;100.00;99823.36;1766960;79;21528;-58
2022/10/26 14:57:43;;;;;;;;;;;;;;;14.19;100.00;99834.73;1751946;81;21529;-58
2022/10/26 15:00:17;;;;;;;8.10;4.95;;;;;;;14.04;100.00;99836.05;1762847;78;20406;-58
2022/10/26 15:02:47;;;;;;;7.53;5.33;;;;;;;14.05;100.00;99842.55;1746147;79;21964;-58
2022/10/26 15:05:28;;;;;;;6.55;5.12;;;;;;;14.06;100.00;99838.13;1802176;78;21501;-58
2022/10/26 15:07:55;;;;;;;5.42;4.92;;;;;;;14.01;100.00;99835.72;1798291;78;22475;-57
2022/10/26 15:10:43;;;;;;;5.23;4.73;;;;;;;13.97;100.00;99840.31;1806891;78;21458;-58
2022/10/26 15:13:26;;;;;;;5.50;4.00;;;;;;;13.91;100.00;99838.48;1761243;80;21706;-60
2022/10/26 15:15:56;;;;;;;5.25;4.22;;;;;;;13.86;100.00;99849.29;1800863;78;21789;-60
2022/10/26 15:18:32;;;;;;;6.40;4.05;;;;;;;13.83;100.00;99856.08;1808051;78;21415;-61
2022/10/26 15:20:59;;;;;;;8.85;4.65;;;;;;;13.80;100.00;99857.08;1756173;80;21470;-61
2022/10/26 15:23:27;;;;;;;6.53;4.80;;;;;;;13.80;100.00;99857.55;1772473;80;21561;-60
2022/10/26 15:25:56;;;;;;;6.40;4.58;;;;;;;13.80;100.00;99865.00;1767916;80;21395;-61
2022/10/26 15:28:38;;;;;;;4.17;3.87;;;;;;;13.78;100.00;99866.03;1808307;78;21867;-60
2022/10/26 15:31:16;;;;;;;7.00;4.62;;;;;;;13.82;100.00;99870.21;1784207;78;21461;-60
2022/10/26 15:34:05;;;;;;;5.15;4.50;;;;;;;13.83;100.00;99875.89;1799744;77;21033;-61
2022/10/26 15:36:34;;;;;;;6.35;5.12;;;;;;;13.84;100.00;99876.27;1746144;80;21477;-61
2022/10/26 15:39:01;;;;;;;7.35;5.17;;;;;;;13.85;100.00;99874.50;1764966;79;21584;-61
2022/10/26 15:41:33;;;;;;;5.87;5.35;;;;;;;13.84;100.00;99878.91;1751884;80;21861;-62
2022/10/26 15:44:04;;;;;;;8.28;6.03;;;;;;;13.83;100.00;99878.54;1724745;80;21423;-61
2022/10/26 15:46:35;;;;;;;9.08;5.25;;;;;;;13.83;100.00;99878.06;1793699;78;21084;-61
2022/10/26 15:49:05;;;;;;;8.85;5.58;;;;;;;13.84;100.00;99884.20;1787793;78;21490;-61
2022/10/26 15:51:31;;;;;;;7.03;4.33;;;;;;;13.82;100.00;99889.59;1797332;78;21496;-62
2022/10/26 15:54:01;;;;;;;5.15;4.37;;;;;;;13.81;100.00;99891.83;1771429;80;21795;-61
2022/10/26 15:56:27;;;;;;;6.75;4.45;;;;;;;13.80;100.00;99894.55;1803900;78;21401;-61
2022/10/26 15:58:55;;;;;;;8.83;4.47;;;;;;;13.77;100.00;99896.05;1807332;78;21017;-62
2022/10/26 16:01:23;;;;;;;;;;;;;;;13.77;100.00;99900.02;1724577;81;21596;-61